Time;durP1;ratioP1;P1;durP2;ratioP2;P2;SDS_P1;SDS_P2;PMS_P1;PMS_P2;Temp;Humidity;BMP_temperature;BMP_pressure;BME280_temperature;BME280_humidity;BME280_pressure;Samples;Min_cycle;Max_cycle;Signal;HPM_P1;HPM_P2
2022/07/19 00:00:20;;;;;;;3.35;1.70;;;;;;;21.66;42.41;95575.66;4978128;28;20314;-64
2022/07/19 00:02:46;;;;;;;4.45;2.00;;;;;;;21.69;42.33;95571.75;4976912;28;20289;-63
2022/07/19 00:05:13;;;;;;;4.05;2.10;;;;;;;21.77;42.16;95571.53;4979208;28;20282;-64
2022/07/19 00:07:40;;;;;;;7.53;2.17;;;;;;;21.82;41.96;95576.25;4984707;28;20206;-64
2022/07/19 00:10:07;;;;;;;3.78;2.20;;;;;;;21.77;42.04;95574.19;4981282;28;20627;-64
2022/07/19 00:12:33;;;;;;;3.42;1.98;;;;;;;21.67;42.32;95568.44;4977191;28;20218;-64
2022/07/19 00:14:58;;;;;;;2.45;2.22;;;;;;;21.72;42.10;95574.81;4982187;28;20227;-64
2022/07/19 00:17:24;;;;;;;3.15;2.45;;;;;;;21.69;42.09;95569.06;4987515;28;20322;-64
2022/07/19 00:19:49;;;;;;;3.53;2.10;;;;;;;21.64;42.34;95574.22;4982030;28;20552;-64
2022/07/19 00:22:15;;;;;;;2.45;2.25;;;;;;;21.65;42.38;95575.84;4976308;28;20223;-64
2022/07/19 00:24:40;;;;;;;3.25;2.20;;;;;;;21.65;42.44;95567.81;4983351;28;20226;-64
2022/07/19 00:27:06;;;;;;;4.35;2.15;;;;;;;21.64;42.44;95563.50;4979099;28;20220;-64
2022/07/19 00:29:31;;;;;;;3.65;2.13;;;;;;;21.58;42.36;95578.53;4980218;28;20428;-64
2022/07/19 00:31:56;;;;;;;2.47;2.13;;;;;;;21.52;42.83;95568.66;4980509;28;20199;-64
2022/07/19 00:34:22;;;;;;;5.57;2.70;;;;;;;21.30;43.38;95571.53;4979417;28;20202;-64
2022/07/19 00:36:47;;;;;;;5.63;2.60;;;;;;;21.34;43.54;95569.25;4983011;28;20224;-63
2022/07/19 00:39:13;;;;;;;4.82;2.58;;;;;;;21.41;43.39;95570.13;4986919;28;20234;-64
2022/07/19 00:41:41;;;;;;;4.30;2.80;;;;;;;21.39;43.33;95571.34;4987339;28;20226;-64
2022/07/19 00:44:06;;;;;;;3.78;2.50;;;;;;;21.28;43.87;95567.41;4998874;28;20210;-64
2022/07/19 00:46:32;;;;;;;4.28;2.53;;;;;;;21.35;43.78;95565.53;4981066;28;20214;-63
2022/07/19 00:48:58;;;;;;;3.70;2.28;;;;;;;21.30;44.13;95570.66;4985498;28;20359;-63
2022/07/19 00:51:23;;;;;;;5.03;2.10;;;;;;;21.26;44.02;95564.91;4978286;28;20234;-63
2022/07/19 00:53:50;;;;;;;2.40;1.98;;;;;;;21.26;44.20;95562.25;4978541;28;20226;-63
2022/07/19 00:56:17;;;;;;;3.72;2.28;;;;;;;21.25;44.33;95563.28;4977284;28;20231;-64
2022/07/19 00:58:42;;;;;;;2.90;2.20;;;;;;;21.22;44.30;95562.84;4976911;28;20215;-64
2022/07/19 01:01:09;;;;;;;3.40;2.13;;;;;;;21.20;44.39;95562.22;4982041;28;20365;-64
2022/07/19 01:03:36;;;;;;;2.63;2.25;;;;;;;21.21;44.49;95563.88;4981892;28;20235;-64
2022/07/19 01:06:01;;;;;;;2.15;1.98;;;;;;;21.23;44.44;95564.50;4976100;28;20212;-64
2022/07/19 01:08:27;;;;;;;3.72;2.30;;;;;;;21.00;44.91;95556.88;4982683;28;20228;-64
2022/07/19 01:10:52;;;;;;;3.05;2.03;;;;;;;21.00;44.78;95555.00;4980082;28;20207;-64
2022/07/19 01:13:18;;;;;;;2.67;2.10;;;;;;;20.96;45.25;95558.31;4975386;28;20239;-64
2022/07/19 01:15:44;;;;;;;4.20;2.10;;;;;;;20.96;45.15;95561.00;4984663;28;20243;-64
2022/07/19 01:18:09;;;;;;;3.92;2.33;;;;;;;20.90;45.19;95551.91;4988992;28;20215;-64
2022/07/19 01:20:35;;;;;;;3.35;2.13;;;;;;;20.87;45.46;95557.66;4983971;28;20327;-64
2022/07/19 01:23:01;;;;;;;5.90;2.30;;;;;;;20.82;45.54;95563.63;4978709;28;20251;-64
2022/07/19 01:25:30;;;;;;;3.60;2.03;;;;;;;20.92;45.36;95560.56;4978924;28;20204;-64
2022/07/19 01:27:55;;;;;;;3.53;2.15;;;;;;;20.96;45.22;95559.13;4977604;28;20215;-64
2022/07/19 01:30:23;;;;;;;3.83;2.38;;;;;;;20.93;45.39;95552.34;4974434;28;20238;-64
2022/07/19 01:32:49;;;;;;;3.08;2.10;;;;;;;20.83;45.65;95554.56;4980402;28;20279;-64
2022/07/19 01:35:15;;;;;;;3.33;2.08;;;;;;;20.84;45.58;95552.72;4980857;28;20227;-64
2022/07/19 01:37:42;;;;;;;5.18;2.42;;;;;;;20.83;45.74;95559.09;4985809;28;20215;-64
2022/07/19 01:40:10;;;;;;;4.00;2.08;;;;;;;20.83;45.68;95549.22;4973272;28;20252;-64
2022/07/19 01:42:36;;;;;;;2.85;2.10;;;;;;;20.78;45.71;95545.53;4980116;28;20227;-64
2022/07/19 01:45:02;;;;;;;2.00;1.80;;;;;;;20.75;46.01;95553.94;4975842;28;20227;-64
2022/07/19 01:47:28;;;;;;;4.15;2.17;;;;;;;20.69;46.48;95551.06;4985558;28;20342;-64
2022/07/19 01:49:53;;;;;;;5.35;2.13;;;;;;;20.66;46.31;95550.63;4974611;28;20294;-64
2022/07/19 01:52:20;;;;;;;4.47;2.35;;;;;;;20.65;46.33;95551.66;4988251;28;20198;-64
2022/07/19 01:54:45;;;;;;;3.67;2.10;;;;;;;20.67;46.08;95552.28;4989110;28;20239;-64
2022/07/19 01:57:11;;;;;;;3.63;2.17;;;;;;;20.60;46.44;95554.91;4981340;28;20223;-64
2022/07/19 01:59:36;;;;;;;2.40;2.10;;;;;;;20.58;46.64;95557.00;4978209;28;20647;-64
2022/07/19 02:02:02;;;;;;;4.50;2.13;;;;;;;20.55;46.49;95544.00;4974651;28;20230;-64
2022/07/19 02:04:27;;;;;;;4.10;1.73;;;;;;;20.54;46.72;95545.03;4959496;28;20246;-64
2022/07/19 02:06:53;;;;;;;4.18;2.20;;;;;;;20.56;46.49;95553.69;4980318;28;20220;-64
2022/07/19 02:09:18;;;;;;;3.17;2.05;;;;;;;20.54;46.83;95555.72;4980836;28;20245;-64
2022/07/19 02:11:44;;;;;;;2.85;2.03;;;;;;;20.49;46.94;95552.81;4983868;28;20224;-64
2022/07/19 02:14:09;;;;;;;5.13;2.13;;;;;;;20.46;46.94;95556.69;4979446;28;20606;-64
2022/07/19 02:16:37;;;;;;;3.53;2.10;;;;;;;20.42;47.13;95565.28;4978218;28;20239;-64
2022/07/19 02:19:04;;;;;;;2.28;1.80;;;;;;;20.45;47.10;95570.28;4975859;28;20215;-64
2022/07/19 02:21:30;;;;;;;3.78;2.00;;;;;;;20.32;47.62;95560.34;4975605;28;20224;-64
2022/07/19 02:23:55;;;;;;;4.68;2.00;;;;;;;20.35;47.45;95556.47;4982774;28;20281;-64
2022/07/19 02:26:21;;;;;;;4.70;2.22;;;;;;;20.34;47.53;95552.13;4981112;28;20249;-64
2022/07/19 02:28:46;;;;;;;5.30;2.17;;;;;;;20.40;47.19;95554.00;4983424;28;20211;-64
2022/07/19 02:31:12;;;;;;;2.85;2.05;;;;;;;20.35;47.32;95559.13;4981233;28;20714;-64
2022/07/19 02:33:37;;;;;;;2.03;1.80;;;;;;;20.32;47.39;95565.69;4977391;28;20223;-64
2022/07/19 02:36:03;;;;;;;1.85;1.75;;;;;;;20.22;47.44;95566.03;4972912;28;20288;-64
2022/07/19 02:38:30;;;;;;;4.55;1.90;;;;;;;20.23;47.52;95561.53;4973940;28;20228;-64
2022/07/19 02:40:55;;;;;;;2.78;2.03;;;;;;;20.20;47.64;95559.25;4970997;28;20303;-64
2022/07/19 02:43:21;;;;;;;3.78;1.85;;;;;;;20.23;47.38;95567.72;4981393;28;20302;-64
2022/07/19 02:45:46;;;;;;;2.03;1.80;;;;;;;20.21;47.39;95575.09;4987576;28;20223;-63
2022/07/19 02:48:12;;;;;;;2.85;1.90;;;;;;;20.18;47.43;95562.13;4984637;28;20224;-63
2022/07/19 02:50:37;;;;;;;3.55;1.58;;;;;;;20.17;47.66;95565.81;4982969;28;20234;-63
2022/07/19 02:53:03;;;;;;;2.55;1.60;;;;;;;20.10;47.65;95567.66;4979998;28;20258;-63
2022/07/19 02:55:28;;;;;;;3.78;1.92;;;;;;;20.10;47.72;95569.47;4985021;28;20212;-63
2022/07/19 02:57:54;;;;;;;3.25;1.75;;;;;;;20.10;47.67;95567.66;4980524;28;20232;-63
2022/07/19 03:00:19;;;;;;;2.05;1.70;;;;;;;20.08;47.57;95572.34;4979811;28;20228;-63
2022/07/19 03:02:45;;;;;;;2.97;1.80;;;;;;;20.02;47.91;95575.78;4987436;28;20230;-63
2022/07/19 03:05:10;;;;;;;4.75;2.15;;;;;;;20.00;47.99;95577.84;4983586;28;20203;-63
2022/07/19 03:07:36;;;;;;;2.10;1.90;;;;;;;19.92;48.04;95576.16;4978526;28;20204;-63
2022/07/19 03:10:02;;;;;;;1.58;1.48;;;;;;;19.89;48.38;95578.38;4979849;28;20228;-63
2022/07/19 03:12:28;;;;;;;4.68;1.70;;;;;;;19.86;48.32;95574.28;4962645;28;20223;-63
2022/07/19 03:14:53;;;;;;;2.72;1.65;;;;;;;19.90;48.09;95582.72;4978062;28;20237;-63
2022/07/19 03:17:18;;;;;;;3.20;1.70;;;;;;;19.85;48.26;95574.47;4984402;28;20228;-63
2022/07/19 03:19:45;;;;;;;3.58;1.92;;;;;;;19.77;48.84;95578.09;4985727;28;20203;-63
2022/07/19 03:22:12;;;;;;;2.88;1.55;;;;;;;19.58;49.21;95577.72;4979510;28;20254;-63
2022/07/19 03:24:37;;;;;;;3.83;1.65;;;;;;;19.66;49.27;95578.63;4979367;28;20228;-63
2022/07/19 03:27:03;;;;;;;2.67;1.83;;;;;;;19.72;48.97;95576.00;4977196;28;20228;-64
2022/07/19 03:29:28;;;;;;;5.20;1.90;;;;;;;19.80;48.99;95588.38;4971289;28;20230;-63
2022/07/19 03:31:53;;;;;;;5.03;2.15;;;;;;;19.78;48.86;95580.59;4975883;28;20286;-63
2022/07/19 03:34:19;;;;;;;2.20;2.00;;;;;;;19.80;48.88;95585.72;4979514;28;20215;-64
2022/07/19 03:36:44;;;;;;;4.65;2.10;;;;;;;19.86;49.08;95592.97;4996251;28;20839;-63
2022/07/19 03:39:10;;;;;;;3.72;1.67;;;;;;;19.80;49.34;95589.19;4990515;28;20231;-64
2022/07/19 03:41:35;;;;;;;5.13;2.17;;;;;;;19.92;48.93;95591.34;4978646;28;20682;-65
2022/07/19 03:44:01;;;;;;;2.92;1.83;;;;;;;19.82;49.57;95589.84;4976309;28;20267;-63
2022/07/19 03:46:28;;;;;;;3.47;1.77;;;;;;;19.90;49.54;95593.38;4980014;28;20674;-63
2022/07/19 03:48:54;;;;;;;3.40;1.83;;;;;;;19.93;49.35;95593.00;4981222;28;20234;-63
2022/07/19 03:51:19;;;;;;;2.72;1.98;;;;;;;19.98;49.39;95595.91;4984191;28;20240;-63
2022/07/19 03:53:45;;;;;;;2.35;1.80;;;;;;;19.99;49.13;95584.19;4982874;28;20228;-63
2022/07/19 03:56:10;;;;;;;3.22;1.90;;;;;;;20.05;49.20;95597.59;4988038;28;20207;-64
2022/07/19 03:58:36;;;;;;;2.22;1.85;;;;;;;19.98;49.39;95596.72;4980359;28;20215;-64
2022/07/19 04:01:02;;;;;;;4.22;2.15;;;;;;;19.97;49.47;95592.41;4985639;28;20211;-63
2022/07/19 04:03:27;;;;;;;3.28;1.92;;;;;;;20.08;49.26;95606.22;4984591;28;20223;-63
2022/07/19 04:05:52;;;;;;;4.55;2.20;;;;;;;19.95;49.50;95605.13;4973131;28;20238;-63
2022/07/19 04:08:18;;;;;;;3.03;1.98;;;;;;;19.98;49.64;95609.25;4983144;28;20231;-63
2022/07/19 04:10:43;;;;;;;3.05;2.10;;;;;;;20.03;49.29;95618.31;4988191;28;20239;-63
2022/07/19 04:13:09;;;;;;;2.90;1.77;;;;;;;20.08;49.32;95612.41;4982538;28;20240;-64
2022/07/19 04:15:34;;;;;;;4.53;2.00;;;;;;;20.06;48.92;95611.75;4984618;28;20355;-63
2022/07/19 04:18:00;;;;;;;2.88;2.20;;;;;;;20.01;48.83;95607.00;4979213;28;20232;-64
2022/07/19 04:20:25;;;;;;;4.78;2.35;;;;;;;20.17;48.66;95608.53;4976646;28;20354;-64
2022/07/19 04:22:50;;;;;;;5.50;1.90;;;;;;;20.22;48.59;95611.44;4980203;28;20208;-64
2022/07/19 04:25:16;;;;;;;5.10;2.10;;;;;;;20.19;48.62;95608.34;4979215;28;20208;-64
2022/07/19 04:27:41;;;;;;;5.90;2.20;;;;;;;20.13;48.68;95607.28;4981967;28;20272;-64
2022/07/19 04:30:07;;;;;;;3.08;1.90;;;;;;;20.17;48.44;95611.19;4984096;28;20223;-65
2022/07/19 04:32:33;;;;;;;3.10;1.70;;;;;;;20.18;48.52;95607.53;4985349;28;20230;-64
2022/07/19 04:35:00;;;;;;;1.95;1.70;;;;;;;20.61;47.50;95609.16;4980012;28;21057;-64
2022/07/19 04:37:25;;;;;;;3.58;1.92;;;;;;;21.46;45.00;95599.72;4977389;28;20212;-63
2022/07/19 04:39:51;;;;;;;3.90;2.05;;;;;;;21.18;45.87;95596.41;4974797;28;20235;-62
2022/07/19 04:42:16;;;;;;;5.32;2.33;;;;;;;20.94;45.96;95598.59;4978513;28;20232;-62
2022/07/19 04:44:42;;;;;;;3.42;1.80;;;;;;;20.75;47.04;95602.06;4975405;28;20216;-61
2022/07/19 04:47:07;;;;;;;2.83;1.80;;;;;;;20.32;48.19;95607.59;4989008;28;20223;-62
2022/07/19 04:49:32;;;;;;;3.28;2.10;;;;;;;20.37;48.05;95611.31;4982193;28;20211;-61
2022/07/19 04:51:58;;;;;;;5.45;2.00;;;;;;;20.31;48.36;95601.41;4974106;28;20738;-61
2022/07/19 04:54:23;;;;;;;1.95;1.75;;;;;;;20.44;48.07;95614.81;4983847;28;20323;-62
2022/07/19 04:56:49;;;;;;;5.60;2.28;;;;;;;20.40;48.25;95608.25;4978765;28;20264;-62
2022/07/19 04:59:14;;;;;;;3.30;2.20;;;;;;;20.34;48.94;95616.22;4982726;28;20234;-63
2022/07/19 05:01:40;;;;;;;3.13;2.13;;;;;;;20.55;48.22;95618.81;4981099;28;20211;-63
2022/07/19 05:04:05;;;;;;;3.13;2.10;;;;;;;20.54;48.15;95622.53;4984310;28;20289;-63
2022/07/19 05:06:31;;;;;;;1.73;1.63;;;;;;;20.57;47.97;95622.13;4980173;28;20250;-61
2022/07/19 05:08:56;;;;;;;3.58;2.30;;;;;;;20.62;48.25;95618.84;4981880;28;20227;-63
2022/07/19 05:11:22;;;;;;;5.10;2.05;;;;;;;20.74;48.28;95619.09;4976229;28;20231;-62
2022/07/19 05:13:48;;;;;;;2.80;2.13;;;;;;;20.78;48.40;95613.16;4981347;28;20257;-62
2022/07/19 05:16:13;;;;;;;4.47;2.30;;;;;;;20.91;47.65;95609.69;4976118;28;20311;-62
2022/07/19 05:18:39;;;;;;;4.55;1.90;;;;;;;20.86;47.55;95612.16;4975793;28;20228;-63
2022/07/19 05:21:04;;;;;;;5.35;2.00;;;;;;;20.85;47.59;95621.19;4989606;28;20223;-63
2022/07/19 05:23:30;;;;;;;4.13;2.00;;;;;;;20.89;47.50;95615.25;4983929;28;20231;-63
2022/07/19 05:25:55;;;;;;;2.28;1.88;;;;;;;20.96;46.92;95614.47;4980776;28;20221;-63
2022/07/19 05:28:21;;;;;;;5.25;2.45;;;;;;;20.81;47.27;95611.94;4972379;28;20925;-61
2022/07/19 05:30:46;;;;;;;3.58;2.30;;;;;;;20.81;47.56;95622.63;4979298;28;20219;-61
2022/07/19 05:33:12;;;;;;;5.22;3.00;;;;;;;20.79;47.21;95617.47;4980319;28;20230;-62
2022/07/19 05:35:38;;;;;;;5.65;2.65;;;;;;;20.91;47.22;95623.88;4980436;28;20232;-62
2022/07/19 05:38:03;;;;;;;5.22;2.67;;;;;;;21.10;46.42;95624.16;4979222;28;20218;-62
2022/07/19 05:40:29;;;;;;;4.72;2.40;;;;;;;21.12;46.31;95622.91;4985362;28;20215;-62
2022/07/19 05:42:54;;;;;;;6.35;2.90;;;;;;;21.21;46.57;95618.19;4977564;28;20638;-68
2022/07/19 05:45:20;;;;;;;5.30;2.75;;;;;;;21.26;46.81;95620.28;4978370;28;20242;-64
2022/07/19 05:47:45;;;;;;;5.28;2.70;;;;;;;21.09;47.04;95620.66;4973258;28;20295;-65
2022/07/19 05:50:11;;;;;;;2.90;2.60;;;;;;;21.10;47.05;95622.28;4977792;28;20210;-64
2022/07/19 05:52:36;;;;;;;5.72;2.47;;;;;;;21.19;46.30;95624.78;4981902;28;20203;-65
2022/07/19 05:55:02;;;;;;;5.20;2.33;;;;;;;21.12;46.42;95622.91;4974537;28;20306;-64
2022/07/19 05:57:28;;;;;;;2.90;2.45;;;;;;;21.19;46.37;95616.75;4984907;28;20231;-64
2022/07/19 05:59:53;;;;;;;5.07;2.83;;;;;;;21.36;46.09;95610.00;4979880;28;20226;-63
2022/07/19 06:02:19;;;;;;;5.65;3.33;;;;;;;21.14;46.41;95612.84;4978408;28;20247;-64
2022/07/19 06:04:45;;;;;;;5.53;3.03;;;;;;;21.22;46.24;95613.66;4979100;28;20212;-65
2022/07/19 06:07:10;;;;;;;3.85;2.75;;;;;;;21.42;46.08;95608.38;4979730;28;20230;-63
2022/07/19 06:09:36;;;;;;;6.68;2.72;;;;;;;21.43;45.50;95610.84;4980572;28;20306;-66
2022/07/19 06:12:01;;;;;;;6.10;2.50;;;;;;;21.49;45.82;95602.00;4977966;28;20247;-65
2022/07/19 06:14:27;;;;;;;6.50;2.92;;;;;;;21.50;45.71;95609.00;4981433;28;20741;-65
2022/07/19 06:16:53;;;;;;;5.28;2.60;;;;;;;21.60;45.43;95608.59;4978621;28;20218;-65
2022/07/19 06:19:19;;;;;;;5.93;2.65;;;;;;;21.69;45.21;95606.53;4985176;28;20254;-63
2022/07/19 06:21:44;;;;;;;8.05;2.60;;;;;;;21.67;45.20;95611.25;4979904;28;20247;-65
2022/07/19 06:24:10;;;;;;;7.28;3.38;;;;;;;21.63;45.44;95600.16;4975498;28;20231;-66
2022/07/19 06:26:35;;;;;;;4.88;3.00;;;;;;;21.68;45.29;95599.50;4985303;28;20267;-63
2022/07/19 06:29:01;;;;;;;4.95;3.15;;;;;;;21.71;45.42;95607.16;4978396;28;20349;-64
2022/07/19 06:31:26;;;;;;;4.22;3.15;;;;;;;21.65;45.62;95607.97;4984220;28;20204;-64
2022/07/19 06:33:51;;;;;;;7.38;2.97;;;;;;;21.82;45.13;95597.69;4988809;28;20322;-63
2022/07/19 06:36:18;;;;;;;8.13;3.28;;;;;;;21.79;45.08;95598.91;4988345;28;20640;-62
2022/07/19 06:38:43;;;;;;;6.15;3.33;;;;;;;21.95;44.52;95603.84;4979876;28;20315;-65
2022/07/19 06:41:11;;;;;;;4.68;3.10;;;;;;;22.04;44.98;95601.75;4981058;28;20341;-64
2022/07/19 06:43:37;;;;;;;4.35;2.83;;;;;;;22.09;45.02;95598.44;4995635;28;20683;-63
2022/07/19 06:46:03;;;;;;;7.80;3.50;;;;;;;22.09;45.01;95601.13;4985489;28;20231;-65
2022/07/19 06:48:28;;;;;;;5.65;2.88;;;;;;;22.13;45.09;95600.50;4989021;28;20263;-64
2022/07/19 06:50:54;;;;;;;7.78;2.60;;;;;;;22.19;44.38;95598.88;4980867;28;21333;-64
2022/07/19 06:53:21;;;;;;;6.50;2.63;;;;;;;22.28;44.47;95597.59;4981889;28;20297;-63
2022/07/19 06:55:46;;;;;;;6.30;3.17;;;;;;;22.31;44.12;95596.38;4980166;28;20220;-65
2022/07/19 06:58:12;;;;;;;6.13;3.13;;;;;;;22.37;44.41;95598.19;4977814;28;20297;-65
2022/07/19 07:00:38;;;;;;;5.60;3.00;;;;;;;22.39;44.06;95599.63;4982415;28;20224;-65
2022/07/19 07:03:03;;;;;;;6.65;3.00;;;;;;;22.50;43.48;95600.00;4979650;28;20236;-63
2022/07/19 07:05:29;;;;;;;4.72;3.40;;;;;;;22.51;43.27;95596.28;4985722;28;20224;-71
2022/07/19 07:07:54;;;;;;;2.80;2.30;;;;;;;22.60;41.88;95601.19;4991585;28;20215;-70
2022/07/19 07:10:20;;;;;;;4.88;2.78;;;;;;;22.58;41.97;95597.09;4980968;28;20212;-70
2022/07/19 07:12:46;;;;;;;5.63;4.15;;;;;;;22.63;42.13;95594.59;4985403;28;20235;-67
2022/07/19 07:15:11;;;;;;;5.30;3.00;;;;;;;22.66;41.66;95583.44;4978398;28;20223;-69
2022/07/19 07:17:37;;;;;;;4.45;2.80;;;;;;;22.71;42.19;95580.13;4985448;28;20224;-68
2022/07/19 07:20:05;;;;;;;7.15;2.90;;;;;;;22.72;41.87;95590.66;4983025;28;20219;-68
2022/07/19 07:22:31;;;;;;;4.93;2.65;;;;;;;22.79;41.17;95583.38;4982555;28;20707;-65
2022/07/19 07:24:56;;;;;;;5.78;2.70;;;;;;;22.82;41.48;95585.63;4983221;28;20231;-63
2022/07/19 07:27:22;;;;;;;4.65;3.30;;;;;;;22.79;41.65;95583.38;4981782;28;20247;-63
2022/07/19 07:29:48;;;;;;;5.35;2.92;;;;;;;22.86;41.08;95586.03;4976347;28;20228;-63
2022/07/19 07:32:13;;;;;;;3.78;3.00;;;;;;;22.96;41.22;95590.91;4982655;28;20229;-64
2022/07/19 07:34:39;;;;;;;5.03;2.88;;;;;;;23.05;40.57;95587.00;4983825;28;20871;-65
2022/07/19 07:37:04;;;;;;;5.80;3.13;;;;;;;23.08;39.67;95587.38;4978920;28;20224;-64
2022/07/19 07:39:30;;;;;;;4.65;2.47;;;;;;;23.13;39.28;95583.25;4986476;28;20711;-65
2022/07/19 07:41:55;;;;;;;3.85;3.20;;;;;;;23.03;39.95;95583.69;4990766;28;20231;-64
2022/07/19 07:44:20;;;;;;;3.95;2.65;;;;;;;23.07;40.16;95584.94;4986259;28;20294;-64
2022/07/19 07:46:46;;;;;;;5.18;3.25;;;;;;;23.16;39.54;95583.63;4981027;28;20290;-65
2022/07/19 07:49:11;;;;;;;6.03;2.55;;;;;;;23.29;38.63;95580.84;4977748;28;20250;-63
2022/07/19 07:51:37;;;;;;;4.80;2.60;;;;;;;23.27;39.07;95579.41;4977255;28;20251;-63
2022/07/19 07:54:03;;;;;;;3.92;2.33;;;;;;;23.32;37.67;95572.34;4974725;28;20228;-65
2022/07/19 07:56:28;;;;;;;2.30;2.10;;;;;;;23.41;37.19;95575.59;4972323;28;20254;-63
2022/07/19 07:58:54;;;;;;;3.85;1.92;;;;;;;23.40;36.53;95573.13;4986313;28;20215;-67
2022/07/19 08:01:19;;;;;;;2.78;2.17;;;;;;;23.40;36.72;95573.13;4983046;28;20207;-64
2022/07/19 08:03:45;;;;;;;3.53;2.65;;;;;;;23.47;37.16;95565.84;4983591;28;20242;-64
2022/07/19 08:06:11;;;;;;;4.53;2.55;;;;;;;23.48;35.64;95573.69;4978885;28;20226;-64
2022/07/19 08:08:37;;;;;;;1.90;1.77;;;;;;;23.50;34.72;95568.09;4972650;28;20235;-63
2022/07/19 08:11:03;;;;;;;1.73;1.60;;;;;;;23.62;34.18;95566.34;4982312;28;20213;-63
2022/07/19 08:13:29;;;;;;;1.95;1.75;;;;;;;23.62;34.92;95570.88;4983499;28;20298;-64
2022/07/19 08:15:55;;;;;;;3.33;1.90;;;;;;;23.73;34.70;95568.31;4982412;28;20225;-64
2022/07/19 08:18:20;;;;;;;2.45;2.10;;;;;;;23.76;34.22;95573.28;4992326;28;20227;-63
2022/07/19 08:20:46;;;;;;;2.95;2.08;;;;;;;23.93;33.41;95572.72;4980990;28;20270;-64
2022/07/19 08:23:11;;;;;;;4.55;2.40;;;;;;;23.95;33.15;95579.50;4977137;28;20204;-65
2022/07/19 08:25:37;;;;;;;2.45;1.90;;;;;;;24.02;32.37;95571.38;4976591;28;20208;-64
2022/07/19 08:28:03;;;;;;;3.80;2.05;;;;;;;24.03;32.13;95567.66;4980661;28;20303;-63
2022/07/19 08:30:29;;;;;;;3.85;2.00;;;;;;;24.05;31.26;95564.72;4976955;28;20232;-63
2022/07/19 08:32:54;;;;;;;3.22;1.90;;;;;;;24.18;31.74;95564.59;4984721;28;20223;-64
2022/07/19 08:35:20;;;;;;;2.47;1.73;;;;;;;24.31;31.02;95572.50;4993011;28;20227;-63
2022/07/19 08:37:45;;;;;;;3.70;2.00;;;;;;;24.19;31.93;95550.94;4984551;28;20216;-63
2022/07/19 08:40:11;;;;;;;4.78;2.15;;;;;;;24.32;31.08;95559.88;4978811;28;20370;-64
2022/07/19 08:42:37;;;;;;;3.60;1.83;;;;;;;24.42;31.06;95566.38;4982265;28;20230;-63
2022/07/19 08:45:08;;;;;;;3.70;1.92;;;;;;;24.45;30.47;95565.13;4977249;28;20224;-64
2022/07/19 08:47:35;;;;;;;4.80;2.15;;;;;;;24.58;29.88;95564.97;4992166;28;20231;-64
2022/07/19 08:50:03;;;;;;;3.53;1.85;;;;;;;24.57;29.86;95567.91;4979392;28;20547;-64
2022/07/19 08:52:32;;;;;;;2.80;1.83;;;;;;;24.55;30.20;95565.44;4987687;28;20273;-63
2022/07/19 08:54:57;;;;;;;2.72;1.77;;;;;;;24.47;30.23;95568.41;4982510;28;20227;-63
2022/07/19 09:00:08;;;;;;;2.85;1.80;;;;;;;24.55;29.98;95570.00;4973947;28;20242;-64
2022/07/19 09:02:33;;;;;;;3.25;1.98;;;;;;;24.75;30.02;95562.50;4974486;28;20228;-65
2022/07/19 09:05:07;;;;;;;2.80;1.80;;;;;;;24.80;29.76;95569.88;4970108;28;20211;-65
2022/07/19 09:07:35;;;;;;;2.15;1.92;;;;;;;24.82;29.38;95549.75;4972381;28;20211;-64
2022/07/19 09:10:18;;;;;;;2.15;1.88;;;;;;;24.95;29.65;95554.16;4970419;28;20232;-64
2022/07/19 09:13:06;;;;;;;6.80;2.25;;;;;;;24.93;29.32;95556.25;4983164;28;20250;-64
2022/07/19 09:15:54;;;;;;;3.25;2.30;;;;;;;24.95;29.95;95554.16;4965802;28;20251;-64
2022/07/19 09:18:35;;;;;;;4.38;2.22;;;;;;;25.12;29.78;95564.25;4970693;28;20223;-63
2022/07/19 09:21:04;;;;;;;2.42;2.08;;;;;;;25.09;30.13;95560.97;4969721;28;20545;-64
2022/07/19 09:23:30;;;;;;;3.70;2.33;;;;;;;25.24;29.33;95554.38;4968429;28;20223;-63
2022/07/19 09:26:02;;;;;;;2.92;2.20;;;;;;;25.08;28.72;95556.66;4970398;28;20192;-62
2022/07/19 09:28:31;;;;;;;2.15;1.95;;;;;;;25.01;29.33;95547.03;4976818;28;20207;-62
2022/07/19 09:30:58;;;;;;;3.70;2.30;;;;;;;25.11;29.77;95559.94;4970743;28;20286;-61
2022/07/19 09:33:29;;;;;;;3.20;1.92;;;;;;;25.15;29.09;95537.72;4968645;28;20231;-64
2022/07/19 09:36:01;;;;;;;2.40;2.20;;;;;;;25.18;29.20;95542.69;4978120;28;20219;-64
2022/07/19 09:38:27;;;;;;;5.13;2.17;;;;;;;25.20;29.67;95543.25;4971590;28;20295;-64
2022/07/19 09:41:13;;;;;;;2.58;1.83;;;;;;;25.23;29.38;95540.13;4972354;28;20290;-62
2022/07/19 09:44:05;;;;;;;2.47;1.83;;;;;;;25.47;28.09;95532.91;4980240;28;20221;-63
2022/07/19 09:46:39;;;;;;;4.07;2.03;;;;;;;25.57;27.62;95528.81;4977419;28;20212;-61
2022/07/19 09:49:09;;;;;;;3.72;1.77;;;;;;;25.85;27.72;95536.19;4969147;28;20224;-61
2022/07/19 09:51:37;;;;;;;4.40;1.80;;;;;;;25.91;27.33;95535.28;4977729;28;20232;-64
2022/07/19 09:54:04;;;;;;;5.20;1.80;;;;;;;26.15;27.08;95526.09;4974589;28;20228;-62
2022/07/19 09:56:30;;;;;;;2.67;1.88;;;;;;;26.07;26.76;95528.34;4977328;28;20243;-62
2022/07/19 09:58:58;;;;;;;3.22;1.83;;;;;;;26.05;26.68;95527.75;4976379;28;20208;-63
2022/07/19 10:01:24;;;;;;;3.15;1.85;;;;;;;25.85;27.64;95528.13;4977688;28;20275;-62
2022/07/19 10:03:54;;;;;;;2.92;1.52;;;;;;;26.16;27.09;95532.31;4980822;28;20247;-62
2022/07/19 10:06:20;;;;;;;2.42;1.88;;;;;;;26.31;26.59;95531.81;4980680;28;20228;-62
2022/07/19 10:08:46;;;;;;;3.15;1.80;;;;;;;26.53;26.04;95523.94;4975953;28;20228;-63
2022/07/19 10:11:11;;;;;;;1.90;1.80;;;;;;;26.93;27.15;95514.97;4975471;28;20218;-63
2022/07/19 10:13:37;;;;;;;2.75;2.00;;;;;;;27.15;26.37;95507.00;4979674;28;20325;-63
2022/07/19 10:16:12;;;;;;;2.22;2.03;;;;;;;27.34;26.08;95515.72;4979696;28;20223;-61
2022/07/19 10:18:51;;;;;;;2.97;1.98;;;;;;;27.63;25.75;95519.16;4978700;28;20224;-62
2022/07/19 10:21:17;;;;;;;2.17;1.65;;;;;;;27.75;25.85;95516.34;4975072;28;20229;-62
2022/07/19 10:23:53;;;;;;;3.90;2.22;;;;;;;27.82;25.43;95517.84;4984604;28;20231;-62
2022/07/19 10:26:55;;;;;;;2.10;2.00;;;;;;;28.00;24.06;95505.94;4984216;28;20231;-62
2022/07/19 10:29:23;;;;;;;6.10;2.42;;;;;;;27.94;25.00;95506.94;4950857;28;20243;-62
2022/07/19 10:32:06;;;;;;;4.80;2.20;;;;;;;28.21;25.07;95506.22;4942934;28;20307;-61
2022/07/19 10:34:32;;;;;;;4.00;2.10;;;;;;;28.47;24.61;95508.22;4957466;28;20287;-61
2022/07/19 10:36:58;;;;;;;5.03;2.13;;;;;;;28.47;23.85;95497.38;4970573;28;20341;-61
2022/07/19 10:39:33;;;;;;;4.20;2.35;;;;;;;28.36;24.72;95507.25;4950092;28;20244;-63
2022/07/19 10:42:13;;;;;;;3.13;2.50;;;;;;;27.75;25.87;95503.69;4955279;28;20251;-62
2022/07/19 10:44:57;;;;;;;3.35;2.15;;;;;;;27.92;26.08;95496.38;4960472;28;20228;-63
2022/07/19 10:47:42;;;;;;;3.05;2.28;;;;;;;27.89;25.69;95504.97;4938919;28;20314;-63
2022/07/19 10:50:18;;;;;;;3.97;2.17;;;;;;;28.19;24.84;95495.66;4944440;28;20215;-63
2022/07/19 10:52:45;;;;;;;2.65;1.95;;;;;;;28.48;24.89;95498.19;4962431;28;20223;-63
2022/07/19 10:55:20;;;;;;;4.05;2.10;;;;;;;28.71;24.06;95505.22;4949388;28;20282;-62
2022/07/19 10:58:11;;;;;;;2.72;2.47;;;;;;;28.93;24.79;95503.28;4955250;28;20235;-63
2022/07/19 11:00:45;;;;;;;2.00;1.80;;;;;;;29.18;25.75;95497.31;4945494;28;20229;-63
2022/07/19 11:03:22;;;;;;;3.45;2.03;;;;;;;29.01;24.82;95502.00;4946956;28;20484;-63
2022/07/19 11:05:53;;;;;;;3.28;2.22;;;;;;;29.07;24.71;95487.47;4990844;28;20231;-64
2022/07/19 11:08:35;;;;;;;2.47;2.13;;;;;;;28.32;24.45;95489.88;4980361;28;20231;-63
2022/07/19 11:11:03;;;;;;;3.47;2.83;;;;;;;28.41;25.83;95492.94;4990219;28;20296;-63
2022/07/19 11:13:29;;;;;;;2.42;2.22;;;;;;;28.42;25.53;95488.38;4983955;28;20239;-62
2022/07/19 11:15:58;;;;;;;3.05;2.10;;;;;;;28.42;25.19;95478.38;4978625;28;20242;-63
2022/07/19 11:18:23;;;;;;;2.80;2.17;;;;;;;28.39;24.77;95481.56;4985767;28;20219;-63
2022/07/19 11:20:49;;;;;;;2.75;2.33;;;;;;;28.66;24.88;95472.72;4987946;28;20293;-63
2022/07/19 11:23:18;;;;;;;3.90;2.15;;;;;;;28.88;25.40;95473.47;4983612;28;20231;-64
2022/07/19 11:25:46;;;;;;;2.53;2.33;;;;;;;28.95;24.66;95479.50;4978096;28;20204;-64
2022/07/19 11:28:25;;;;;;;3.97;2.70;;;;;;;28.84;25.94;95476.94;4993182;28;20311;-63
2022/07/19 11:30:51;;;;;;;5.57;2.50;;;;;;;28.66;25.19;95478.94;4990497;28;20250;-64
2022/07/19 11:33:18;;;;;;;5.93;2.70;;;;;;;28.55;24.22;95477.19;4980033;28;20239;-62
2022/07/19 11:35:58;;;;;;;3.67;2.10;;;;;;;28.90;23.97;95479.44;4982299;28;20277;-63